Time;durP1;ratioP1;P1;durP2;ratioP2;P2;SDS_P1;SDS_P2;PMS_P1;PMS_P2;Temp;Humidity;BMP_temperature;BMP_pressure;BME280_temperature;BME280_humidity;BME280_pressure;Samples;Min_cycle;Max_cycle;Signal;HPM_P1;HPM_P2
2022/04/30 00:02:14;;;;;;;9.10;5.40;;;7.80;99.90;;;;;;5132674;27;20211;-60
2022/04/30 00:04:42;;;;;;;9.30;5.53;;;7.80;99.90;;;;;;5132618;27;20203;-60
2022/04/30 00:07:13;;;;;;;9.30;5.20;;;7.70;99.90;;;;;;5132141;27;20618;-60
2022/04/30 00:09:41;;;;;;;11.23;5.73;;;7.60;99.90;;;;;;5132563;27;20279;-60
2022/04/30 00:12:09;;;;;;;6.20;3.90;;;7.70;99.90;;;;;;5132328;27;20218;-60
2022/04/30 00:14:37;;;;;;;10.00;5.60;;;7.50;99.90;;;;;;5132663;27;20207;-60
2022/04/30 00:17:05;;;;;;;12.83;6.00;;;7.60;99.90;;;;;;5132228;27;20199;-59
2022/04/30 00:19:31;;;;;;;7.30;4.47;;;7.70;99.90;;;;;;5132271;27;20279;-59
2022/04/30 00:21:58;;;;;;;12.47;5.27;;;7.50;99.90;;;;;;5132644;27;20211;-59
2022/04/30 00:24:28;;;;;;;8.50;5.07;;;7.50;99.90;;;;;;5132139;27;20258;-58
2022/04/30 00:26:57;;;;;;;8.17;5.53;;;7.50;99.90;;;;;;5131771;27;20234;-59
2022/04/30 00:29:24;;;;;;;9.67;5.87;;;7.50;99.90;;;;;;5132237;27;20278;-59
2022/04/30 00:31:51;;;;;;;8.07;4.73;;;7.50;99.90;;;;;;5132360;27;20199;-60
2022/04/30 00:34:17;;;;;;;9.53;5.23;;;7.50;99.90;;;;;;5136155;27;20205;-60
2022/04/30 00:36:44;;;;;;;7.00;4.67;;;7.40;99.90;;;;;;5135495;27;20204;-60
2022/04/30 00:39:11;;;;;;;9.00;5.63;;;7.40;99.90;;;;;;5135825;27;20231;-59
2022/04/30 00:41:44;;;;;;;7.67;4.83;;;7.40;1.00;;;;;;5135938;27;20275;-59
2022/04/30 00:44:11;;;;;;;9.03;5.97;;;7.40;1.00;;;;;;5136136;27;20240;-58
2022/04/30 00:46:38;;;;;;;9.73;5.40;;;7.40;1.00;;;;;;5135214;27;20740;-60
2022/04/30 00:49:05;;;;;;;7.90;6.03;;;7.30;1.00;;;;;;5135627;27;20230;-60
2022/04/30 00:51:33;;;;;;;12.07;6.03;;;7.30;1.00;;;;;;5135997;27;20250;-59
2022/04/30 00:54:01;;;;;;;8.57;5.73;;;7.30;1.00;;;;;;5135499;27;20206;-60
2022/04/30 00:56:31;;;;;;;10.47;5.20;;;7.30;1.00;;;;;;5135432;27;20202;-55
2022/04/30 00:59:03;;;;;;;8.80;5.90;;;7.20;1.00;;;;;;5135780;27;20264;-58
2022/04/30 01:01:33;;;;;;;7.00;3.80;;;7.10;1.00;;;;;;5135743;27;20217;-59
2022/04/30 01:04:00;;;;;;;11.10;5.90;;;7.00;1.00;;;;;;5135441;27;20622;-58
2022/04/30 01:06:47;;;;;;;8.40;5.67;;;7.00;1.00;;;;;;5134990;27;20866;-60
2022/04/30 01:09:14;;;;;;;10.30;5.83;;;7.10;1.00;;;;;;5135217;27;20226;-60
2022/04/30 01:11:43;;;;;;;9.97;5.73;;;7.00;1.00;;;;;;5135175;27;20679;-59
2022/04/30 01:14:12;;;;;;;9.70;5.53;;;7.10;1.00;;;;;;5135286;27;20208;-59
2022/04/30 01:16:38;;;;;;;10.03;5.83;;;7.00;1.00;;;;;;5134868;27;20728;-59
2022/04/30 01:19:06;;;;;;;8.90;5.63;;;7.10;1.00;;;;;;5135042;27;20283;-59
2022/04/30 01:21:36;;;;;;;8.60;5.90;;;7.00;1.00;;;;;;5135073;27;20202;-59
2022/04/30 01:24:05;;;;;;;7.70;4.73;;;7.00;1.00;;;;;;5135059;27;20203;-57
2022/04/30 01:26:32;;;;;;;11.93;6.80;;;6.90;1.00;;;;;;5134483;27;20225;-58
2022/04/30 01:28:59;;;;;;;7.73;5.23;;;6.80;3.80;;;;;;5135066;27;20637;-59
2022/04/30 01:39:39;;;;;;;8.50;6.53;;;6.60;99.90;;;;;;5134368;27;20603;-59
2022/04/30 01:42:11;;;;;;;10.47;6.47;;;6.60;99.90;;;;;;5134760;27;20261;-60
2022/04/30 01:44:38;;;;;;;8.87;5.37;;;6.60;99.90;;;;;;5134697;27;20212;-59
2022/04/30 01:47:05;;;;;;;7.57;4.97;;;6.60;99.90;;;;;;5134248;27;20219;-59
2022/04/30 01:49:32;;;;;;;8.90;5.50;;;6.50;99.90;;;;;;5134313;27;20229;-52
2022/04/30 01:51:59;;;;;;;8.33;5.17;;;6.60;99.90;;;;;;5134483;27;20690;-57
2022/04/30 01:54:25;;;;;;;9.47;5.53;;;6.50;99.90;;;;;;5134229;27;20200;-54
2022/04/30 01:56:53;;;;;;;9.93;6.30;;;6.50;99.90;;;;;;5134021;27;20675;-59
2022/04/30 01:59:21;;;;;;;11.67;5.93;;;6.40;99.90;;;;;;5134279;27;20235;-58
2022/04/30 02:01:48;;;;;;;10.30;6.60;;;6.40;99.90;;;;;;5134478;27;20205;-53
2022/04/30 02:04:15;;;;;;;8.07;5.80;;;6.40;99.90;;;;;;5134119;27;20224;-57
2022/04/30 02:06:42;;;;;;;11.60;5.83;;;6.40;99.90;;;;;;5133728;27;20220;-54
2022/04/30 02:09:09;;;;;;;8.80;5.37;;;6.30;99.90;;;;;;5134060;27;20604;-59
2022/04/30 02:11:37;;;;;;;10.13;6.17;;;6.30;99.90;;;;;;5133965;27;20218;-57
2022/04/30 02:14:06;;;;;;;8.73;5.23;;;6.20;99.90;;;;;;5134187;27;20211;-58
2022/04/30 02:16:35;;;;;;;9.93;5.17;;;6.10;1.00;;;;;;5133475;27;20253;-54
2022/04/30 02:19:02;;;;;;;9.27;5.33;;;6.10;1.00;;;;;;5133920;27;20227;-59
2022/04/30 02:21:30;;;;;;;5.20;3.53;;;6.00;17.50;;;;;;5133538;27;20629;-58
2022/04/30 02:23:58;;;;;;;6.50;5.07;;;6.00;35.50;;;;;;5133896;27;20203;-56
2022/04/30 02:26:27;;;;;;;10.50;5.73;;;6.00;99.90;;;;;;5133264;27;20272;-58
2022/04/30 02:28:55;;;;;;;7.17;5.20;;;6.00;99.90;;;;;;5133771;27;20207;-59
2022/04/30 02:31:24;;;;;;;6.80;5.10;;;5.90;99.90;;;;;;5133777;27;20204;-55
2022/04/30 02:33:50;;;;;;;5.97;4.60;;;5.90;99.90;;;;;;5133364;27;20211;-58
2022/04/30 02:36:17;;;;;;;8.77;5.23;;;5.90;99.90;;;;;;5133171;27;20662;-57
2022/04/30 02:38:44;;;;;;;11.37;4.87;;;5.80;99.90;;;;;;5133630;27;20206;-54
2022/04/30 02:41:11;;;;;;;10.20;5.27;;;5.80;99.90;;;;;;5134533;27;20207;-58
2022/04/30 02:43:38;;;;;;;10.13;4.50;;;5.80;99.90;;;;;;5134932;27;20203;-59
2022/04/30 02:46:05;;;;;;;8.00;4.73;;;5.80;99.90;;;;;;5135056;27;20220;-59
2022/04/30 02:48:33;;;;;;;6.40;4.60;;;5.80;99.90;;;;;;5134170;27;20756;-57
2022/04/30 02:51:00;;;;;;;8.50;5.20;;;5.70;1.00;;;;;;5132846;27;20490;-58
2022/04/30 02:53:27;;;;;;;5.57;4.07;;;5.60;90.40;;;;;;5133347;27;20452;-60
2022/04/30 02:55:54;;;;;;;8.83;4.83;;;5.60;99.90;;;;;;5132047;27;20619;-58
2022/04/30 03:01:05;;;;;;;8.43;4.93;;;5.50;47.80;;;;;;5132937;27;20567;-60
2022/04/30 03:03:33;;;;;;;8.10;5.67;;;5.50;99.90;;;;;;5133423;27;20447;-60
2022/04/30 03:06:01;;;;;;;6.37;4.40;;;5.40;71.30;;;;;;5132742;27;20222;-59
2022/04/30 03:08:29;;;;;;;10.77;5.67;;;5.40;99.90;;;;;;5133266;27;20470;-59
2022/04/30 03:10:56;;;;;;;6.73;5.40;;;5.30;1.00;;;;;;5132821;27;20465;-60
2022/04/30 03:13:25;;;;;;;8.63;5.93;;;5.40;21.70;;;;;;5133015;27;20444;-60
2022/04/30 03:15:54;;;;;;;11.20;5.77;;;5.40;99.90;;;;;;5132660;27;20445;-60
2022/04/30 03:24:07;;;;;;;10.57;5.30;;;5.30;99.90;;;;;;5089529;28;20533;-59
2022/04/30 03:26:34;;;;;;;9.93;5.97;;;5.20;33.20;;;;;;5089259;28;20482;-59
2022/04/30 03:29:03;;;;;;;8.33;5.80;;;5.20;99.90;;;;;;5108019;27;20477;-60
2022/04/30 03:31:30;;;;;;;9.43;6.40;;;5.20;1.00;;;;;;5132904;27;21092;-58
2022/04/30 03:33:57;;;;;;;9.50;6.90;;;5.20;99.90;;;;;;5132757;27;20441;-60
2022/04/30 03:36:25;;;;;;;7.83;5.60;;;5.20;99.90;;;;;;5132290;27;20501;-59
2022/04/30 03:38:52;;;;;;;11.13;5.67;;;5.10;99.90;;;;;;5132902;27;20448;-60
2022/04/30 03:41:18;;;;;;;13.07;6.33;;;5.10;99.90;;;;;;5132404;27;20504;-58
2022/04/30 03:43:45;;;;;;;9.10;5.93;;;5.20;99.90;;;;;;5132597;27;20203;-60
2022/04/30 03:46:12;;;;;;;12.43;6.37;;;5.20;1.00;;;;;;5132597;27;20480;-60
2022/04/30 03:48:38;;;;;;;12.03;6.43;;;5.10;99.90;;;;;;5132895;27;20448;-59
2022/04/30 03:51:06;;;;;;;16.10;6.20;;;5.00;99.90;;;;;;5132387;27;20452;-60
2022/04/30 03:53:34;;;;;;;10.97;6.60;;;5.00;99.90;;;;;;5132914;27;20440;-59
2022/04/30 03:56:01;;;;;;;9.60;6.03;;;5.00;99.90;;;;;;5132212;27;20475;-59
2022/04/30 03:58:28;;;;;;;9.83;6.43;;;5.00;99.90;;;;;;5132752;27;20532;-59
2022/04/30 04:00:55;;;;;;;10.70;6.17;;;5.00;99.90;;;;;;5132529;27;20468;-59
2022/04/30 04:03:22;;;;;;;13.67;6.73;;;4.90;1.00;;;;;;5132234;27;20991;-59
2022/04/30 04:05:49;;;;;;;13.57;6.83;;;4.80;98.10;;;;;;5132735;27;20497;-58
2022/04/30 04:08:16;;;;;;;14.93;6.90;;;4.90;99.90;;;;;;5136206;27;20936;-59
2022/04/30 04:10:44;;;;;;;9.10;6.07;;;4.80;99.90;;;;;;5136557;27;20464;-59
2022/04/30 04:18:39;;;;;;;9.23;6.57;;;4.70;1.00;;;;;;5136098;27;20557;-60
2022/04/30 04:21:07;;;;;;;13.33;6.50;;;4.70;1.00;;;;;;5136465;27;20441;-59
2022/04/30 04:25:58;;;;;;;12.07;6.33;;;4.60;1.00;;;;;;5136229;27;20449;-59
2022/04/30 04:26:21;;;;;;;13.10;7.13;;;4.60;1.00;;;;;;5135589;27;20623;-59
2022/04/30 04:28:48;;;;;;;9.67;6.50;;;4.70;1.00;;;;;;5136362;27;20441;-58
2022/04/30 04:31:17;;;;;;;14.70;6.43;;;4.70;1.00;;;;;;5136171;27;20444;-59
2022/04/30 04:33:44;;;;;;;12.00;7.33;;;4.70;1.00;;;;;;5136027;27;20824;-59
2022/04/30 04:36:11;;;;;;;13.70;7.13;;;4.70;1.00;;;;;;5135569;27;20457;-59
2022/04/30 04:38:38;;;;;;;12.17;7.30;;;4.70;1.00;;;;;;5135977;27;20448;-60
2022/04/30 04:41:04;;;;;;;11.23;7.13;;;4.80;1.00;;;;;;5135697;27;20444;-60
2022/04/30 04:43:32;;;;;;;10.23;6.83;;;4.80;1.00;;;;;;5136176;27;20445;-60
2022/04/30 04:46:00;;;;;;;13.97;6.87;;;4.80;1.00;;;;;;5135681;27;20449;-59
2022/04/30 04:48:27;;;;;;;10.47;6.40;;;4.90;1.00;;;;;;5135667;27;20480;-59
2022/04/30 04:50:53;;;;;;;11.63;7.07;;;5.00;1.00;;;;;;5135727;27;20464;-60
2022/04/30 04:53:20;;;;;;;11.00;6.77;;;5.00;1.00;;;;;;5135582;27;20453;-59
2022/04/30 04:55:47;;;;;;;13.37;7.40;;;5.00;1.00;;;;;;5135635;27;20210;-60
2022/04/30 04:58:14;;;;;;;11.47;7.37;;;5.00;1.00;;;;;;5135416;27;20494;-59
2022/04/30 05:00:42;;;;;;;10.13;6.50;;;5.00;1.00;;;;;;5135722;27;20465;-59
2022/04/30 05:03:09;;;;;;;12.93;7.00;;;4.90;1.00;;;;;;5135432;27;20448;-59
2022/04/30 05:05:36;;;;;;;10.93;7.40;;;4.90;1.00;;;;;;5135647;27;20489;-59
2022/04/30 05:08:03;;;;;;;13.67;7.00;;;5.00;1.00;;;;;;5134966;27;20468;-60
2022/04/30 05:10:30;;;;;;;10.80;6.43;;;5.10;1.00;;;;;;5135361;27;20468;-60
2022/04/30 05:12:57;;;;;;;10.57;5.70;;;5.10;1.00;;;;;;5135545;27;20872;-60
2022/04/30 05:15:24;;;;;;;10.97;7.13;;;5.10;1.00;;;;;;5135210;27;20446;-60
2022/04/30 05:17:52;;;;;;;10.87;6.27;;;5.10;1.00;;;;;;5134503;27;20452;-59
2022/04/30 05:20:19;;;;;;;9.83;6.70;;;5.10;1.00;;;;;;5135002;27;21047;-59
2022/04/30 05:22:46;;;;;;;9.37;5.73;;;5.10;1.00;;;;;;5135215;27;20445;-58
2022/04/30 05:25:13;;;;;;;11.30;6.63;;;5.20;1.00;;;;;;5135590;27;20445;-60
2022/04/30 05:27:40;;;;;;;12.73;5.57;;;5.20;1.00;;;;;;5134521;27;20321;-60
2022/04/30 05:30:08;;;;;;;8.30;5.57;;;5.30;1.00;;;;;;5135058;27;20510;-60
2022/04/30 05:32:35;;;;;;;10.00;6.20;;;5.30;1.00;;;;;;5134907;27;20202;-60
2022/04/30 05:35:03;;;;;;;10.73;5.87;;;5.30;1.00;;;;;;5134852;27;20354;-60
2022/04/30 05:37:30;;;;;;;9.80;5.90;;;5.40;1.00;;;;;;5134553;27;20449;-60
2022/04/30 05:39:56;;;;;;;11.33;6.27;;;5.40;1.00;;;;;;5134967;27;20539;-59
2022/04/30 05:42:23;;;;;;;9.57;6.43;;;5.40;99.90;;;;;;5134728;27;20999;-59
2022/04/30 05:44:50;;;;;;;15.07;6.17;;;5.50;99.90;;;;;;5134743;27;20215;-58
2022/04/30 05:47:18;;;;;;;12.67;6.13;;;5.50;99.90;;;;;;5134308;27;20223;-56
2022/04/30 05:49:45;;;;;;;10.33;6.40;;;5.60;99.90;;;;;;5134221;27;20276;-60
2022/04/30 05:52:13;;;;;;;13.30;6.03;;;5.70;99.90;;;;;;5134825;27;20868;-58
2022/04/30 05:54:39;;;;;;;8.43;6.20;;;5.70;99.90;;;;;;5134721;27;20215;-60
2022/04/30 05:57:06;;;;;;;9.30;6.17;;;5.70;99.90;;;;;;5134286;27;20199;-60
2022/04/30 05:59:33;;;;;;;8.80;6.03;;;5.80;1.00;;;;;;5134372;27;20284;-60
2022/04/30 06:01:59;;;;;;;8.43;5.73;;;5.80;1.00;;;;;;5134627;27;20681;-59
2022/04/30 06:04:26;;;;;;;9.93;5.20;;;5.90;99.90;;;;;;5134284;27;20345;-60
2022/04/30 06:06:53;;;;;;;9.47;6.20;;;5.90;99.90;;;;;;5134512;27;20276;-65
2022/04/30 06:09:21;;;;;;;11.50;6.17;;;6.00;1.00;;;;;;5134432;27;20236;-65
2022/04/30 06:11:48;;;;;;;10.43;5.33;;;6.20;1.00;;;;;;5133908;27;20241;-57
2022/04/30 06:14:15;;;;;;;11.23;5.07;;;6.30;99.90;;;;;;5134038;27;20661;-56
2022/04/30 06:16:41;;;;;;;7.50;5.07;;;6.30;1.00;;;;;;5133597;27;20212;-57
2022/04/30 06:19:08;;;;;;;7.80;5.57;;;6.30;99.90;;;;;;5133802;27;20720;-59
2022/04/30 06:21:35;;;;;;;6.80;4.47;;;6.40;99.90;;;;;;5134079;27;20582;-58
2022/04/30 06:24:02;;;;;;;12.40;5.37;;;6.50;1.00;;;;;;5134132;27;20261;-60
2022/04/30 06:26:31;;;;;;;9.70;5.10;;;6.50;1.00;;;;;;5133569;27;20205;-59
2022/04/30 06:28:58;;;;;;;6.07;4.37;;;6.60;99.90;;;;;;5133579;27;20228;-57
2022/04/30 06:31:24;;;;;;;9.17;5.30;;;6.60;99.90;;;;;;5132769;27;20256;-60
2022/04/30 06:33:53;;;;;;;7.07;5.20;;;6.70;1.00;;;;;;5133974;27;20201;-58
2022/04/30 06:36:19;;;;;;;11.30;5.57;;;6.70;1.00;;;;;;5133729;27;20238;-60
2022/04/30 06:38:46;;;;;;;8.23;4.90;;;6.80;1.00;;;;;;5133310;27;20217;-60
2022/04/30 06:41:12;;;;;;;10.43;5.67;;;6.80;90.80;;;;;;5133614;27;20205;-58
2022/04/30 06:43:42;;;;;;;8.53;5.03;;;6.80;99.90;;;;;;5133453;27;20213;-61
2022/04/30 06:46:08;;;;;;;12.63;5.60;;;6.80;99.90;;;;;;5110627;27;20212;-61
2022/04/30 06:48:35;;;;;;;13.10;5.83;;;6.90;99.90;;;;;;5112153;28;20775;-62
2022/04/30 06:51:02;;;;;;;8.17;5.20;;;7.10;75.20;;;;;;5112827;28;20235;-61
2022/04/30 06:59:12;;;;;;;13.93;6.03;;;7.10;99.90;;;;;;5049472;28;20228;-61
2022/04/30 07:01:43;;;;;;;9.63;5.40;;;7.30;70.30;;;;;;5098476;28;20235;-61
2022/04/30 07:04:11;;;;;;;8.87;5.00;;;7.40;99.90;;;;;;5112284;28;20211;-63
2022/04/30 07:06:38;;;;;;;8.17;5.07;;;7.60;99.90;;;;;;5111728;28;20213;-62
2022/04/30 07:09:07;;;;;;;8.80;4.23;;;7.70;1.00;;;;;;5111762;28;20288;-62
2022/04/30 07:11:34;;;;;;;8.50;5.40;;;7.70;99.90;;;;;;5112250;28;20212;-63
2022/04/30 07:14:01;;;;;;;8.50;4.57;;;7.80;1.00;;;;;;5112478;28;20636;-63
2022/04/30 07:16:29;;;;;;;8.63;4.87;;;7.80;94.30;;;;;;5112097;27;20207;-63
2022/04/30 07:18:56;;;;;;;6.23;3.97;;;7.70;1.00;;;;;;5112368;28;20196;-63
2022/04/30 07:21:23;;;;;;;12.73;5.10;;;7.70;1.00;;;;;;5112661;28;20207;-63
2022/04/30 07:23:51;;;;;;;8.90;4.73;;;7.80;99.90;;;;;;5112523;28;20301;-60
2022/04/30 07:26:17;;;;;;;9.67;5.37;;;7.90;1.00;;;;;;5112263;28;20298;-60
2022/04/30 07:28:46;;;;;;;7.50;4.73;;;7.80;1.00;;;;;;5112163;28;20570;-60
2022/04/30 07:31:12;;;;;;;4.57;3.33;;;7.80;99.90;;;;;;5112416;28;20213;-62
2022/04/30 07:33:41;;;;;;;9.03;4.30;;;7.80;99.90;;;;;;5112468;28;20260;-63
2022/04/30 07:36:07;;;;;;;10.10;4.97;;;7.90;99.90;;;;;;5111935;28;20207;-63
2022/04/30 07:38:35;;;;;;;9.87;5.00;;;7.90;99.90;;;;;;5112505;28;20199;-63
2022/04/30 07:41:02;;;;;;;8.33;4.90;;;7.90;99.90;;;;;;5112500;28;20227;-63
2022/04/30 07:43:29;;;;;;;11.90;4.50;;;8.00;1.00;;;;;;5116585;28;20257;-63
2022/04/30 07:45:55;;;;;;;9.80;3.90;;;7.90;1.00;;;;;;5116000;28;20756;-63
2022/04/30 07:48:22;;;;;;;10.63;4.50;;;7.90;1.00;;;;;;5116487;27;20223;-63
2022/04/30 07:50:52;;;;;;;9.43;4.40;;;7.90;1.00;;;;;;5116537;28;20227;-63
2022/04/30 07:53:19;;;;;;;5.33;3.40;;;7.90;99.90;;;;;;5116557;28;20207;-63
2022/04/30 07:55:45;;;;;;;6.47;3.33;;;7.90;99.90;;;;;;5116361;28;20248;-63
2022/04/30 07:58:12;;;;;;;7.30;3.93;;;7.80;99.90;;;;;;5115877;28;20285;-63
2022/04/30 08:00:39;;;;;;;4.77;3.00;;;7.80;99.90;;;;;;5116284;28;20743;-63
2022/04/30 08:03:06;;;;;;;5.43;3.40;;;7.80;99.90;;;;;;5115884;28;20271;-63
2022/04/30 08:05:34;;;;;;;7.57;3.47;;;7.90;99.90;;;;;;5116121;28;20203;-63
2022/04/30 08:08:02;;;;;;;7.33;2.97;;;8.10;99.90;;;;;;5115372;28;20322;-62
2022/04/30 08:10:29;;;;;;;5.50;3.40;;;8.10;99.90;;;;;;5116044;28;20223;-63
2022/04/30 08:12:56;;;;;;;5.63;2.83;;;8.30;99.90;;;;;;5115975;28;20208;-62
2022/04/30 08:15:24;;;;;;;5.03;3.27;;;8.50;99.90;;;;;;5115543;27;20261;-63
2022/04/30 08:17:52;;;;;;;6.63;3.50;;;8.90;99.90;;;;;;5115415;28;20282;-63
2022/04/30 08:20:18;;;;;;;6.23;3.33;;;9.20;99.90;;;;;;5115744;28;20300;-63
2022/04/30 08:22:45;;;;;;;6.97;3.33;;;9.60;99.90;;;;;;5115856;28;20211;-63
2022/04/30 08:25:13;;;;;;;5.93;3.50;;;9.80;99.90;;;;;;5115489;28;20208;-63
2022/04/30 08:27:40;;;;;;;4.10;3.23;;;9.90;99.90;;;;;;5115229;28;20249;-63
2022/04/30 08:30:09;;;;;;;5.43;3.37;;;9.90;99.90;;;;;;5115557;28;20223;-63
2022/04/30 08:32:36;;;;;;;5.43;3.80;;;9.80;99.90;;;;;;5115732;28;20304;-63
2022/04/30 08:35:04;;;;;;;7.93;4.27;;;9.60;99.90;;;;;;5115599;28;20687;-63
2022/04/30 08:37:30;;;;;;;5.87;3.77;;;9.40;99.90;;;;;;5115017;28;20257;-63
2022/04/30 08:39:57;;;;;;;8.57;4.03;;;9.30;99.90;;;;;;5115361;28;20250;-63
2022/04/30 08:42:25;;;;;;;8.93;3.83;;;9.20;99.90;;;;;;5115202;27;20208;-63
2022/04/30 08:44:52;;;;;;;4.90;3.50;;;9.30;99.90;;;;;;5115385;27;20208;-63
2022/04/30 08:47:19;;;;;;;4.13;3.00;;;9.40;99.90;;;;;;5114988;27;20208;-63
2022/04/30 08:49:45;;;;;;;6.30;3.10;;;9.30;99.90;;;;;;5115408;28;20228;-63
2022/04/30 08:52:15;;;;;;;5.70;3.00;;;9.10;99.90;;;;;;5115088;28;20203;-63
2022/04/30 08:54:41;;;;;;;6.20;2.97;;;9.50;99.90;;;;;;5114445;28;20205;-63
2022/04/30 08:57:08;;;;;;;6.37;3.43;;;9.80;99.90;;;;;;5114749;28;20203;-63
2022/04/30 08:59:36;;;;;;;8.37;3.67;;;9.90;99.90;;;;;;5115198;28;20225;-63
2022/04/30 09:02:09;;;;;;;4.57;3.10;;;10.10;99.90;;;;;;5115261;28;20261;-63
2022/04/30 09:04:44;;;;;;;5.47;2.57;;;10.40;99.90;;;;;;5114755;28;20346;-63
2022/04/30 09:07:16;;;;;;;5.97;3.60;;;10.40;99.90;;;;;;5114700;27;20266;-63
2022/04/30 09:09:43;;;;;;;5.60;3.03;;;10.70;99.90;;;;;;5114182;28;20226;-63
2022/04/30 09:12:11;;;;;;;5.67;2.80;;;10.80;99.90;;;;;;5114808;28;20630;-63
2022/04/30 09:14:41;;;;;;;4.57;3.20;;;10.70;99.90;;;;;;5114850;27;20214;-63
2022/04/30 09:17:09;;;;;;;3.83;2.80;;;10.80;99.90;;;;;;5114736;28;20241;-63
2022/04/30 09:19:46;;;;;;;4.73;3.10;;;10.90;99.90;;;;;;5114678;28;20227;-63
2022/04/30 09:22:13;;;;;;;8.63;3.77;;;11.20;99.90;;;;;;5114490;28;20210;-63
2022/04/30 09:24:45;;;;;;;6.07;3.47;;;11.30;99.90;;;;;;5115153;28;20236;-63
2022/04/30 09:27:14;;;;;;;5.27;3.10;;;11.20;99.90;;;;;;5114219;28;20243;-63
2022/04/30 09:29:42;;;;;;;3.60;2.60;;;11.30;99.90;;;;;;5114849;28;20235;-63
2022/04/30 09:32:09;;;;;;;4.83;3.20;;;11.50;99.90;;;;;;5114879;28;20335;-63
2022/04/30 09:40:17;;;;;;;5.60;3.87;;;12.10;99.90;;;;;;5111421;28;20215;-63
2022/04/30 09:42:46;;;;;;;5.03;3.60;;;12.00;99.90;;;;;;5114157;28;20626;-63
2022/04/30 09:45:27;;;;;;;6.70;3.60;;;11.40;99.90;;;;;;5114096;28;20280;-63
2022/04/30 09:47:55;;;;;;;5.27;2.87;;;11.30;99.90;;;;;;5113740;28;20206;-63
2022/04/30 09:55:55;;;;;;;4.70;3.30;;;11.70;99.90;;;;;;5113817;28;20257;-63
2022/04/30 09:58:24;;;;;;;5.33;2.60;;;11.80;99.90;;;;;;5114212;27;20199;-63
2022/04/30 10:00:55;;;;;;;4.03;3.07;;;11.60;99.90;;;;;;5114002;28;20223;-63
2022/04/30 10:03:26;;;;;;;5.27;3.17;;;11.10;96.20;;;;;;5114109;28;20282;-63
2022/04/30 10:06:02;;;;;;;3.47;2.60;;;10.90;96.60;;;;;;5112960;28;20762;-62
2022/04/30 10:08:30;;;;;;;4.00;3.37;;;11.00;97.10;;;;;;5113977;28;20235;-63
2022/04/30 10:11:12;;;;;;;5.60;3.57;;;11.20;99.90;;;;;;5113357;28;20219;-63
2022/04/30 10:13:49;;;;;;;4.63;3.20;;;11.40;99.90;;;;;;5113884;28;20323;-61
2022/04/30 10:16:24;;;;;;;8.23;3.13;;;11.70;99.90;;;;;;5112980;28;20294;-61
2022/04/30 10:19:11;;;;;;;5.40;3.07;;;11.80;98.60;;;;;;5113770;28;20260;-60
2022/04/30 10:21:38;;;;;;;3.30;2.90;;;11.70;99.60;;;;;;5113438;28;20208;-61
2022/04/30 10:24:07;;;;;;;5.43;3.70;;;11.70;95.90;;;;;;5113533;28;20229;-60
2022/04/30 10:26:34;;;;;;;6.20;3.60;;;12.10;99.40;;;;;;5112774;28;20226;-63
2022/04/30 10:29:02;;;;;;;5.03;3.30;;;12.20;99.90;;;;;;5112769;28;20705;-61
2022/04/30 10:31:30;;;;;;;5.93;3.70;;;12.20;99.90;;;;;;5113404;27;20208;-61
2022/04/30 10:33:57;;;;;;;2.33;2.13;;;12.40;99.90;;;;;;5106649;27;20204;-60
2022/04/30 10:36:33;;;;;;;6.33;3.47;;;12.60;99.90;;;;;;5112055;28;20199;-60
2022/04/30 10:39:02;;;;;;;4.33;3.13;;;12.80;99.90;;;;;;5112435;28;20254;-60
2022/04/30 10:41:29;;;;;;;3.83;2.70;;;12.70;99.90;;;;;;5112310;28;20210;-63
2022/04/30 10:44:02;;;;;;;4.67;3.50;;;12.70;99.20;;;;;;5112792;28;20260;-66
2022/04/30 10:46:38;;;;;;;7.57;3.30;;;11.80;92.30;;;;;;5112270;28;20264;-61
2022/04/30 10:49:06;;;;;;;4.83;2.87;;;11.30;87.00;;;;;;5112616;28;20238;-65
2022/04/30 10:51:38;;;;;;;5.50;3.13;;;11.40;97.90;;;;;;5112436;28;20393;-63
2022/04/30 10:54:09;;;;;;;5.27;3.63;;;11.60;89.40;;;;;;5112469;28;20637;-64
2022/04/30 10:56:36;;;;;;;3.93;2.93;;;12.00;95.50;;;;;;5112202;28;20252;-68
2022/04/30 10:59:03;;;;;;;4.40;3.23;;;12.30;99.50;;;;;;5112486;28;20634;-64
2022/04/30 11:01:29;;;;;;;7.93;3.63;;;12.60;98.80;;;;;;5112350;28;20788;-60
2022/04/30 11:03:57;;;;;;;5.87;3.77;;;12.80;99.60;;;;;;5112491;28;20201;-63
2022/04/30 11:06:26;;;;;;;9.83;3.90;;;13.10;99.90;;;;;;5111529;28;20262;-62
2022/04/30 11:08:59;;;;;;;6.87;3.53;;;13.50;99.90;;;;;;5112362;28;20228;-62
2022/04/30 11:11:26;;;;;;;6.03;3.93;;;13.70;99.90;;;;;;5112174;28;20264;-60
2022/04/30 11:14:01;;;;;;;6.63;4.83;;;13.70;99.90;;;;;;5112402;28;20208;-61
2022/04/30 11:16:33;;;;;;;4.67;3.50;;;12.80;98.60;;;;;;5111205;28;20215;-59
2022/04/30 11:19:05;;;;;;;7.40;4.47;;;12.60;97.80;;;;;;5112501;28;20254;-61
2022/04/30 11:21:33;;;;;;;6.17;3.90;;;12.80;97.10;;;;;;5113458;28;20231;-61
2022/04/30 11:24:00;;;;;;;4.10;3.40;;;12.80;96.40;;;;;;5112989;28;20603;-62
2022/04/30 11:26:27;;;;;;;10.80;3.90;;;12.50;95.80;;;;;;5111714;28;20624;-59
2022/04/30 11:28:54;;;;;;;6.20;3.70;;;12.50;99.90;;;;;;5112121;28;20255;-60
2022/04/30 11:31:21;;;;;;;6.50;3.80;;;12.90;97.40;;;;;;5111692;28;20204;-60
2022/04/30 11:33:48;;;;;;;4.30;3.10;;;13.00;95.80;;;;;;5111997;28;20750;-59
2022/04/30 11:36:17;;;;;;;4.07;3.47;;;13.10;99.80;;;;;;5111021;28;20721;-58
2022/04/30 11:38:51;;;;;;;4.60;3.60;;;13.20;98.40;;;;;;5111826;28;20204;-59
2022/04/30 11:41:18;;;;;;;9.73;3.60;;;13.50;97.80;;;;;;5111739;28;20255;-60
2022/04/30 11:43:44;;;;;;;4.20;3.50;;;13.50;99.70;;;;;;5111669;28;20236;-55
2022/04/30 11:46:11;;;;;;;4.87;4.13;;;13.20;96.10;;;;;;5111433;28;20584;-60
2022/04/30 11:48:39;;;;;;;4.17;3.40;;;13.20;98.30;;;;;;5112079;28;20218;-59
2022/04/30 11:51:07;;;;;;;4.57;3.33;;;13.30;99.90;;;;;;5112081;28;20212;-60
2022/04/30 11:53:37;;;;;;;5.67;3.60;;;13.20;96.90;;;;;;5111626;28;20201;-60
2022/04/30 11:56:04;;;;;;;4.33;3.70;;;13.00;94.30;;;;;;5111160;28;20297;-60
2022/04/30 11:58:41;;;;;;;5.83;3.07;;;13.20;97.30;;;;;;5111623;28;20202;-60
2022/04/30 12:01:18;;;;;;;4.50;3.13;;;13.50;97.20;;;;;;5111789;28;20578;-59
2022/04/30 12:03:45;;;;;;;5.57;3.80;;;13.60;97.00;;;;;;5111779;28;20210;-60
2022/04/30 12:06:11;;;;;;;4.73;3.30;;;13.90;96.70;;;;;;5110986;28;20210;-60
2022/04/30 12:08:40;;;;;;;4.37;3.20;;;13.70;95.50;;;;;;5111670;28;20218;-60
2022/04/30 12:11:07;;;;;;;3.57;3.07;;;13.60;97.30;;;;;;5111254;28;20222;-60
2022/04/30 12:13:34;;;;;;;4.33;3.17;;;14.00;99.80;;;;;;5112253;28;20214;-60
2022/04/30 12:16:05;;;;;;;4.97;3.57;;;14.40;99.90;;;;;;5111246;28;20206;-60
2022/04/30 12:26:58;;;;;;;4.00;2.80;;;13.70;94.10;;;;;;5111083;28;20647;-60
2022/04/30 12:29:25;;;;;;;5.57;2.80;;;13.00;91.20;;;;;;5115032;27;20309;-58
2022/04/30 12:31:52;;;;;;;5.63;3.40;;;13.20;90.60;;;;;;5114969;28;20208;-56
2022/04/30 12:34:20;;;;;;;4.30;3.73;;;13.50;91.90;;;;;;5114859;28;20218;-58
2022/04/30 12:36:54;;;;;;;3.70;3.33;;;13.80;95.30;;;;;;5114595;28;20821;-58
2022/04/30 12:39:23;;;;;;;4.93;3.90;;;14.00;94.70;;;;;;5114998;28;20299;-59
2022/04/30 12:41:50;;;;;;;2.90;2.60;;;14.00;93.10;;;;;;5114943;28;20238;-55
2022/04/30 12:44:17;;;;;;;4.23;3.27;;;14.00;94.40;;;;;;5114699;27;20206;-57
2022/04/30 12:46:44;;;;;;;6.30;2.93;;;14.00;92.30;;;;;;5114393;28;20210;-55
2022/04/30 12:49:13;;;;;;;3.27;2.87;;;13.90;91.50;;;;;;5114541;28;20231;-57
2022/04/30 12:51:40;;;;;;;5.03;3.47;;;13.50;84.80;;;;;;5114687;28;20210;-52
2022/04/30 12:54:07;;;;;;;3.93;3.10;;;13.50;88.30;;;;;;5114793;28;20202;-59
2022/04/30 12:56:35;;;;;;;4.30;3.60;;;13.40;89.60;;;;;;5114509;28;20210;-59
2022/04/30 12:59:01;;;;;;;6.23;3.50;;;13.30;86.80;;;;;;5114486;27;20226;-60
2022/04/30 13:01:28;;;;;;;6.63;3.43;;;13.60;89.90;;;;;;5115155;28;20206;-60
2022/04/30 13:03:55;;;;;;;5.47;3.57;;;13.40;85.10;;;;;;5114944;28;20238;-60
2022/04/30 13:06:22;;;;;;;4.37;3.50;;;13.50;87.80;;;;;;5113961;28;20217;-60
2022/04/30 13:14:37;;;;;;;3.80;3.40;;;14.10;90.50;;;;;;5114434;28;20682;-60
2022/04/30 13:17:04;;;;;;;4.13;3.33;;;14.30;94.20;;;;;;5114118;27;20265;-60
2022/04/30 13:19:31;;;;;;;4.60;3.00;;;14.50;92.70;;;;;;5114099;28;20231;-60
2022/04/30 13:21:59;;;;;;;5.03;3.37;;;14.50;94.70;;;;;;5114169;28;20207;-60
2022/04/30 13:24:26;;;;;;;4.70;3.30;;;14.00;88.10;;;;;;5114347;28;20302;-60
2022/04/30 13:26:54;;;;;;;4.83;3.10;;;13.90;90.00;;;;;;5113721;28;20212;-60
2022/04/30 13:29:21;;;;;;;4.40;3.10;;;14.10;91.30;;;;;;5114188;28;20231;-64
2022/04/30 13:31:48;;;;;;;5.73;3.50;;;14.30;92.50;;;;;;5113837;28;20231;-60
2022/04/30 13:34:15;;;;;;;5.47;3.40;;;14.20;89.50;;;;;;5113807;28;20348;-60
2022/04/30 13:36:41;;;;;;;3.80;3.20;;;14.10;90.20;;;;;;5113761;28;20207;-60
2022/04/30 13:39:08;;;;;;;6.70;3.47;;;14.20;91.30;;;;;;5113611;28;20227;-59
2022/04/30 13:41:35;;;;;;;6.23;3.37;;;14.30;91.50;;;;;;5113968;28;20207;-59
2022/04/30 13:44:03;;;;;;;4.03;2.97;;;14.40;94.10;;;;;;5114012;28;20249;-60
2022/04/30 13:46:30;;;;;;;4.30;3.23;;;14.40;93.60;;;;;;5113397;28;20577;-59
2022/04/30 13:48:57;;;;;;;4.43;3.43;;;14.40;92.20;;;;;;5113279;28;20288;-59
2022/04/30 13:51:23;;;;;;;3.30;2.83;;;14.50;91.60;;;;;;5113557;28;20744;-58